createdAt,value
2017-09-02T00:01:41.199Z,13.00
2017-09-02T00:04:08.802Z,13.10
2017-09-02T00:06:36.406Z,13.10
2017-09-02T00:09:03.972Z,13.10
2017-09-02T00:11:31.538Z,13.10
2017-09-02T00:13:59.152Z,13.10
2017-09-02T00:16:26.840Z,13.10
2017-09-02T00:18:54.434Z,13.10
2017-09-02T00:21:22.021Z,13.10
2017-09-02T00:23:49.574Z,13.10
2017-09-02T00:26:17.164Z,13.10
2017-09-02T00:28:44.733Z,13.10
2017-09-02T00:31:12.286Z,13.00
2017-09-02T00:33:39.882Z,13.10
2017-09-02T00:36:07.518Z,13.00
2017-09-02T00:38:35.101Z,13.00
2017-09-02T00:41:02.680Z,12.90
2017-09-02T00:43:30.260Z,12.90
2017-09-02T00:45:57.829Z,12.90
2017-09-02T00:48:25.469Z,12.90
2017-09-02T00:50:53.159Z,12.90
2017-09-02T00:53:20.761Z,12.90
2017-09-02T00:55:48.310Z,12.80
2017-09-02T00:58:15.899Z,12.80
2017-09-02T01:00:43.578Z,12.70
2017-09-02T01:03:11.142Z,12.90
2017-09-02T01:05:38.758Z,12.90
2017-09-02T01:08:06.390Z,12.80
2017-09-02T01:10:33.994Z,12.70
2017-09-02T01:13:01.568Z,12.80
2017-09-02T01:15:29.203Z,12.80
2017-09-02T01:17:56.763Z,12.70
2017-09-02T01:20:24.406Z,12.60
2017-09-02T01:22:51.999Z,12.60
2017-09-02T01:25:19.590Z,12.50
2017-09-02T01:27:47.175Z,12.40
2017-09-02T01:30:20.265Z,12.40
2017-09-02T01:32:47.858Z,12.50
2017-09-02T01:35:15.446Z,12.40
2017-09-02T01:37:43.002Z,12.20
2017-09-02T01:40:10.630Z,12.20
2017-09-02T01:42:38.215Z,12.20
2017-09-02T01:45:05.801Z,12.20
2017-09-02T01:47:33.385Z,12.00
2017-09-02T01:50:00.972Z,11.90
2017-09-02T01:52:28.535Z,11.90
2017-09-02T01:54:56.131Z,11.80
2017-09-02T01:57:23.702Z,11.70
2017-09-02T01:59:51.308Z,11.70
2017-09-02T02:02:18.884Z,11.70
2017-09-02T02:04:46.458Z,11.70
2017-09-02T02:07:14.037Z,11.70
2017-09-02T02:09:41.607Z,11.50
2017-09-02T02:12:09.280Z,11.50
2017-09-02T02:14:36.875Z,11.50
2017-09-02T02:17:04.453Z,11.50
2017-09-02T02:19:32.050Z,11.40
2017-09-02T02:21:59.686Z,11.40
2017-09-02T02:24:27.248Z,11.30
2017-09-02T02:26:54.839Z,11.20
2017-09-02T02:29:22.440Z,11.30
2017-09-02T02:31:50.126Z,11.40
2017-09-02T02:34:17.760Z,11.40
2017-09-02T02:36:45.357Z,11.50
2017-09-02T02:39:12.918Z,11.60
2017-09-02T02:41:40.492Z,11.70
2017-09-02T02:44:08.278Z,11.80
2017-09-02T02:46:35.845Z,11.80
2017-09-02T02:49:03.584Z,11.80
2017-09-02T02:51:31.155Z,11.80
2017-09-02T02:53:58.755Z,11.70
2017-09-02T02:56:26.426Z,11.70
2017-09-02T02:58:54.022Z,11.60
2017-09-02T03:01:21.576Z,11.50
2017-09-02T03:03:49.317Z,11.30
2017-09-02T03:06:17.249Z,11.30
2017-09-02T03:08:44.902Z,11.20
2017-09-02T03:11:12.530Z,11.40
2017-09-02T03:13:40.125Z,11.40
2017-09-02T03:16:07.716Z,11.30
2017-09-02T03:18:35.284Z,11.20
2017-09-02T03:21:02.925Z,11.20
2017-09-02T03:23:30.493Z,11.10
2017-09-02T03:25:58.167Z,11.00
2017-09-02T03:28:25.737Z,11.20
2017-09-02T03:30:53.298Z,11.20
2017-09-02T03:33:20.888Z,11.30
2017-09-02T03:35:48.530Z,11.10
2017-09-02T03:38:16.190Z,11.00
2017-09-02T03:40:43.810Z,11.00
2017-09-02T03:43:11.380Z,10.90
2017-09-02T03:45:38.985Z,10.90
2017-09-02T03:48:06.545Z,10.90
2017-09-02T03:50:34.176Z,11.10
2017-09-02T03:53:01.762Z,11.00
2017-09-02T03:55:29.338Z,11.00
2017-09-02T03:57:56.976Z,11.00
2017-09-02T04:00:24.558Z,11.20
2017-09-02T04:02:52.498Z,11.20
2017-09-02T04:05:20.090Z,11.20
2017-09-02T04:07:47.718Z,11.10
2017-09-02T04:10:15.320Z,11.20
2017-09-02T04:12:42.889Z,11.10
2017-09-02T04:15:10.494Z,11.00
2017-09-02T04:17:38.053Z,10.90
2017-09-02T04:20:05.662Z,10.90
2017-09-02T04:22:33.239Z,10.90
2017-09-02T04:25:00.814Z,11.00
2017-09-02T04:27:28.418Z,11.00
2017-09-02T04:29:56.006Z,11.00
2017-09-02T04:32:23.599Z,11.00
2017-09-02T04:34:51.169Z,10.90
2017-09-02T04:37:18.743Z,11.00
2017-09-02T04:39:46.334Z,11.00
2017-09-02T04:42:13.988Z,11.00
2017-09-02T04:44:41.565Z,11.10
2017-09-02T04:47:09.147Z,11.20
2017-09-02T04:49:36.729Z,11.10
2017-09-02T04:52:04.323Z,11.10
2017-09-02T04:54:31.903Z,11.10
2017-09-02T04:56:59.546Z,11.00
2017-09-02T04:59:27.116Z,11.10
2017-09-02T05:01:54.718Z,11.30
2017-09-02T05:04:22.274Z,11.40
2017-09-02T05:06:49.857Z,11.30
2017-09-02T05:09:17.422Z,11.30
2017-09-02T05:11:44.986Z,11.30
2017-09-02T05:14:12.579Z,11.30
2017-09-02T05:16:40.177Z,11.30
2017-09-02T05:19:07.768Z,11.40
2017-09-02T05:21:35.332Z,11.40
2017-09-02T05:24:02.959Z,11.50
2017-09-02T05:26:30.531Z,11.60
2017-09-02T05:28:58.085Z,11.70
2017-09-02T05:31:25.674Z,11.80
2017-09-02T05:33:53.243Z,11.90
2017-09-02T05:36:20.842Z,11.90
2017-09-02T05:38:48.415Z,12.00
2017-09-02T05:41:16.001Z,12.10
2017-09-02T05:43:43.582Z,12.10
2017-09-02T05:46:11.172Z,12.20
2017-09-02T05:48:38.755Z,12.30
2017-09-02T05:51:06.348Z,12.40
2017-09-02T05:53:33.938Z,12.50
2017-09-02T05:56:01.498Z,12.60
2017-09-02T05:58:29.102Z,12.70
2017-09-02T06:00:56.671Z,12.80
2017-09-02T06:03:24.242Z,12.80
2017-09-02T06:05:51.816Z,13.00
2017-09-02T06:08:19.437Z,13.00
2017-09-02T06:10:47.147Z,13.20
2017-09-02T06:13:14.729Z,13.50
2017-09-02T06:15:42.344Z,13.70
2017-09-02T06:18:09.944Z,13.70
2017-09-02T06:20:37.543Z,13.80
2017-09-02T06:23:05.115Z,13.80
2017-09-02T06:25:32.694Z,13.70
2017-09-02T06:28:00.295Z,13.80
2017-09-02T06:30:27.857Z,13.90
2017-09-02T06:32:55.431Z,13.80
2017-09-02T06:35:23.035Z,14.00
2017-09-02T06:37:50.608Z,14.00
2017-09-02T06:40:18.187Z,14.30
2017-09-02T06:42:45.759Z,14.40
2017-09-02T06:45:13.414Z,14.40
2017-09-02T06:47:41.834Z,14.60
2017-09-02T06:50:09.401Z,14.60
2017-09-02T06:52:36.981Z,14.70
2017-09-02T06:55:04.549Z,15.10
2017-09-02T06:57:32.156Z,15.60
2017-09-02T06:59:59.739Z,15.90
2017-09-02T07:02:27.346Z,16.50
2017-09-02T07:04:54.910Z,16.90
2017-09-02T07:07:22.493Z,17.40
2017-09-02T07:09:50.245Z,17.30
2017-09-02T07:12:18.778Z,17.00
2017-09-02T07:14:46.371Z,16.90
2017-09-02T07:17:13.942Z,17.20
2017-09-02T07:19:41.873Z,17.20
2017-09-02T07:22:09.437Z,17.40
2017-09-02T07:24:37.073Z,17.30
2017-09-02T07:27:04.652Z,17.30
2017-09-02T07:29:32.227Z,17.50
2017-09-02T07:31:59.807Z,17.80
2017-09-02T07:34:27.387Z,17.80
2017-09-02T07:36:55.190Z,17.80
2017-09-02T07:39:22.788Z,18.10
2017-09-02T07:41:50.359Z,18.50
2017-09-02T07:44:17.970Z,18.30
2017-09-02T07:46:45.533Z,17.90
2017-09-02T07:49:13.214Z,17.20
2017-09-02T07:51:40.774Z,16.90
2017-09-02T07:54:08.335Z,17.00
2017-09-02T07:56:35.934Z,16.90
2017-09-02T07:59:03.491Z,16.90
2017-09-02T08:01:31.068Z,17.10
2017-09-02T08:03:58.642Z,17.50
2017-09-02T08:06:26.202Z,17.40
2017-09-02T08:08:53.798Z,18.00
2017-09-02T08:11:21.401Z,18.40
2017-09-02T08:13:49.008Z,18.90
2017-09-02T08:16:16.583Z,19.30
2017-09-02T08:18:44.184Z,19.60
2017-09-02T08:21:11.842Z,19.80
2017-09-02T08:23:39.431Z,20.10
2017-09-02T08:26:07.035Z,20.70
2017-09-02T08:28:34.659Z,20.20
2017-09-02T08:31:02.235Z,20.10
2017-09-02T08:33:29.845Z,20.50
2017-09-02T08:35:57.652Z,20.00
2017-09-02T08:38:25.276Z,19.70
2017-09-02T08:40:52.857Z,19.80
2017-09-02T08:43:20.441Z,20.10
2017-09-02T08:45:48.035Z,19.70
2017-09-02T08:48:15.596Z,19.10
2017-09-02T08:50:43.219Z,19.30
2017-09-02T08:53:10.816Z,19.50
2017-09-02T08:55:38.409Z,19.40
2017-09-02T08:58:06.030Z,19.30
2017-09-02T09:00:33.635Z,18.80
2017-09-02T09:03:01.253Z,18.50
2017-09-02T09:05:28.850Z,18.40
2017-09-02T09:07:56.448Z,18.50
2017-09-02T09:10:24.058Z,18.50
2017-09-02T09:12:51.654Z,18.50
2017-09-02T09:15:19.321Z,18.40
2017-09-02T09:17:46.977Z,18.60
2017-09-02T09:20:14.595Z,18.50
2017-09-02T09:22:42.151Z,18.50
2017-09-02T09:25:09.762Z,18.90
2017-09-02T09:27:37.359Z,19.20
2017-09-02T09:30:05.103Z,19.40
2017-09-02T09:32:32.691Z,19.30
2017-09-02T09:35:00.266Z,19.10
2017-09-02T09:37:27.887Z,18.80
2017-09-02T09:39:55.462Z,18.90
2017-09-02T09:42:23.070Z,18.80
2017-09-02T09:44:50.670Z,19.50
2017-09-02T09:47:19.063Z,19.20
2017-09-02T09:49:46.659Z,19.60
2017-09-02T09:52:14.214Z,19.30
2017-09-02T09:54:41.807Z,19.30
2017-09-02T09:57:09.386Z,19.80
2017-09-02T09:59:36.968Z,20.80
2017-09-02T10:02:04.551Z,21.10
2017-09-02T10:04:32.122Z,21.50
2017-09-02T10:06:59.783Z,22.00
2017-09-02T10:09:27.366Z,22.30
2017-09-02T10:11:55.026Z,22.50
2017-09-02T10:14:22.605Z,23.10
2017-09-02T10:16:50.181Z,22.60
2017-09-02T10:19:17.778Z,23.90
2017-09-02T10:21:45.335Z,24.10
2017-09-02T10:24:12.938Z,24.30
2017-09-02T10:26:40.965Z,25.00
2017-09-02T10:29:08.768Z,24.40
2017-09-02T10:31:36.446Z,24.00
2017-09-02T10:34:04.011Z,24.10
2017-09-02T10:36:31.612Z,23.80
2017-09-02T10:38:59.179Z,23.60
2017-09-02T10:41:26.767Z,23.50
2017-09-02T10:43:54.346Z,23.60
2017-09-02T10:46:21.913Z,24.10
2017-09-02T10:48:49.490Z,24.00
2017-09-02T10:51:17.121Z,23.90
2017-09-02T10:53:44.715Z,24.30
2017-09-02T10:56:12.313Z,24.40
2017-09-02T10:58:39.910Z,24.30
2017-09-02T11:01:07.545Z,25.10
2017-09-02T11:03:35.153Z,25.00
2017-09-02T11:06:02.763Z,25.10
2017-09-02T11:08:30.504Z,25.30
2017-09-02T11:10:58.078Z,26.30
2017-09-02T11:13:25.678Z,26.10
2017-09-02T11:15:53.260Z,26.00
2017-09-02T11:18:20.910Z,26.80
2017-09-02T11:20:48.504Z,26.20
2017-09-02T11:23:16.112Z,26.60
2017-09-02T11:25:43.708Z,26.40
2017-09-02T11:28:12.219Z,26.40
2017-09-02T11:30:39.784Z,26.20
2017-09-02T11:33:07.347Z,25.20
2017-09-02T11:35:34.936Z,23.30
2017-09-02T11:38:02.511Z,21.50
2017-09-02T11:40:30.086Z,19.50
2017-09-02T11:42:57.685Z,18.40
2017-09-02T11:45:25.280Z,17.80
2017-09-02T11:47:52.879Z,17.70
2017-09-02T11:50:20.489Z,17.80
2017-09-02T11:52:48.083Z,17.60
2017-09-02T11:55:15.754Z,17.60
2017-09-02T11:57:43.372Z,17.70
2017-09-02T12:00:10.937Z,17.90
2017-09-02T12:02:38.544Z,17.90
2017-09-02T12:05:06.130Z,17.80
2017-09-02T12:07:33.726Z,17.90
2017-09-02T12:10:01.311Z,17.90
2017-09-02T12:12:28.872Z,18.10
2017-09-02T12:14:56.467Z,18.10
2017-09-02T12:17:24.101Z,18.30
2017-09-02T12:19:51.685Z,18.40
2017-09-02T12:22:19.248Z,18.90
2017-09-02T12:24:46.882Z,19.00
2017-09-02T12:27:14.460Z,19.40
2017-09-02T12:29:42.056Z,19.70
2017-09-02T12:32:09.645Z,19.90
2017-09-02T12:34:37.223Z,20.00
2017-09-02T12:37:04.834Z,20.00
2017-09-02T12:39:32.850Z,20.80
2017-09-02T12:42:00.458Z,21.70
2017-09-02T12:44:28.027Z,22.60
2017-09-02T12:46:55.665Z,22.90
2017-09-02T12:49:23.325Z,22.70
2017-09-02T12:51:51.847Z,22.10
2017-09-02T12:54:19.486Z,21.50
2017-09-02T12:56:47.166Z,20.90
2017-09-02T12:59:14.776Z,20.70
2017-09-02T13:01:42.371Z,20.50
2017-09-02T13:04:09.970Z,20.30
2017-09-02T13:06:37.543Z,20.30
2017-09-02T13:09:05.152Z,20.90
2017-09-02T13:11:32.739Z,21.20
2017-09-02T13:14:00.333Z,21.20
2017-09-02T13:16:27.962Z,21.40
2017-09-02T13:18:55.578Z,22.50
2017-09-02T13:21:23.145Z,23.50
2017-09-02T13:23:50.736Z,23.70
2017-09-02T13:26:18.316Z,24.10
2017-09-02T13:28:45.907Z,24.10
2017-09-02T13:31:13.477Z,24.20
2017-09-02T13:33:41.066Z,24.00
2017-09-02T13:36:08.670Z,23.00
2017-09-02T13:38:36.254Z,22.40
2017-09-02T13:41:03.824Z,21.80
2017-09-02T13:43:31.407Z,21.20
2017-09-02T13:45:58.997Z,21.00
2017-09-02T13:48:26.564Z,20.80
2017-09-02T13:50:54.180Z,21.20
2017-09-02T13:53:21.803Z,21.40
2017-09-02T13:55:49.341Z,20.90
2017-09-02T13:58:16.940Z,20.00
2017-09-02T14:00:44.506Z,19.70
2017-09-02T14:03:12.089Z,18.60
2017-09-02T14:05:39.670Z,17.60
2017-09-02T14:08:07.246Z,16.50
2017-09-02T14:10:34.835Z,15.90
2017-09-02T14:13:02.532Z,15.70
2017-09-02T14:15:30.099Z,15.60
2017-09-02T14:17:57.678Z,15.50
2017-09-02T14:20:25.311Z,15.40
2017-09-02T14:22:52.858Z,15.20
2017-09-02T14:25:20.439Z,15.00
2017-09-02T14:27:48.009Z,15.10
2017-09-02T14:30:15.634Z,15.00
2017-09-02T14:32:43.219Z,15.00
2017-09-02T14:35:10.862Z,15.10
2017-09-02T14:37:38.452Z,15.20
2017-09-02T14:40:06.014Z,15.20
2017-09-02T14:42:33.587Z,15.30
2017-09-02T14:45:01.338Z,15.20
2017-09-02T14:47:28.922Z,15.50
2017-09-02T14:49:56.530Z,15.70
2017-09-02T14:52:24.120Z,15.70
2017-09-02T14:54:51.690Z,15.70
2017-09-02T14:57:19.293Z,15.90
2017-09-02T14:59:46.838Z,16.00
2017-09-02T15:02:14.452Z,16.20
2017-09-02T15:04:42.005Z,16.30
2017-09-02T15:07:09.598Z,16.30
2017-09-02T15:09:37.192Z,16.30
2017-09-02T15:12:04.972Z,16.40
2017-09-02T15:14:32.651Z,16.40
2017-09-02T15:17:00.217Z,16.30
2017-09-02T15:19:27.797Z,16.30
2017-09-02T15:21:55.372Z,16.30
2017-09-02T15:24:22.955Z,16.20
2017-09-02T15:26:50.543Z,16.30
2017-09-02T15:29:18.139Z,16.60
2017-09-02T15:31:45.702Z,16.80
2017-09-02T15:34:13.258Z,16.90
2017-09-02T15:36:40.918Z,16.60
2017-09-02T15:39:08.551Z,16.60
2017-09-02T15:41:36.153Z,16.80
2017-09-02T15:44:03.725Z,16.90
2017-09-02T15:46:31.315Z,17.00
2017-09-02T15:48:58.894Z,17.10
2017-09-02T15:51:26.455Z,16.90
2017-09-02T15:53:54.047Z,17.00
2017-09-02T15:56:21.613Z,17.30
2017-09-02T15:58:49.180Z,17.50
2017-09-02T16:01:16.899Z,17.60
2017-09-02T16:03:44.495Z,18.00
2017-09-02T16:06:12.081Z,18.40
2017-09-02T16:08:39.653Z,18.70
2017-09-02T16:11:07.258Z,18.70
2017-09-02T16:13:34.958Z,18.90
2017-09-02T16:16:02.535Z,19.30
2017-09-02T16:18:30.103Z,19.20
2017-09-02T16:20:57.692Z,18.90
2017-09-02T16:23:25.262Z,18.70
2017-09-02T16:25:52.831Z,18.60
2017-09-02T16:28:20.397Z,18.70
2017-09-02T16:30:48.081Z,18.50
2017-09-02T16:33:15.653Z,18.30
2017-09-02T16:35:43.207Z,18.20
2017-09-02T16:38:10.840Z,18.10
2017-09-02T16:40:38.420Z,17.80
2017-09-02T16:43:06.055Z,17.70
2017-09-02T16:45:33.652Z,17.80
2017-09-02T16:48:01.230Z,17.70
2017-09-02T16:50:28.798Z,17.50
2017-09-02T16:52:56.430Z,17.30
2017-09-02T16:55:24.400Z,17.10
2017-09-02T16:57:52.165Z,16.90
2017-09-02T17:00:19.738Z,16.70
2017-09-02T17:02:47.433Z,16.50
2017-09-02T17:05:15.775Z,16.40
2017-09-02T17:07:43.338Z,16.20
2017-09-02T17:10:10.914Z,16.00
2017-09-02T17:12:38.500Z,15.90
2017-09-02T17:15:06.064Z,15.60
2017-09-02T17:17:33.931Z,15.30
2017-09-02T17:20:01.536Z,15.10
2017-09-02T17:22:29.090Z,14.90
2017-09-02T17:24:56.662Z,14.70
2017-09-02T17:27:24.242Z,14.50
2017-09-02T17:29:51.816Z,14.50
2017-09-02T17:32:19.398Z,14.30
2017-09-02T17:34:46.979Z,14.20
2017-09-02T17:37:14.547Z,14.20
2017-09-02T17:39:42.134Z,14.10
2017-09-02T17:42:09.719Z,14.00
2017-09-02T17:44:37.294Z,13.90
2017-09-02T17:47:04.886Z,13.80
2017-09-02T17:49:32.577Z,13.70
2017-09-02T17:52:00.172Z,13.60
2017-09-02T17:54:27.767Z,13.50
2017-09-02T17:56:55.343Z,13.50
2017-09-02T17:59:22.952Z,13.40
2017-09-02T18:01:50.570Z,13.40
2017-09-02T18:04:18.151Z,13.30
2017-09-02T18:06:45.739Z,13.20
2017-09-02T18:09:13.339Z,13.10
2017-09-02T18:11:40.918Z,13.00
2017-09-02T18:14:08.479Z,13.00
2017-09-02T18:16:36.111Z,12.90
2017-09-02T18:19:03.710Z,13.00
2017-09-02T18:21:32.081Z,13.10
2017-09-02T18:23:59.658Z,13.10
2017-09-02T18:26:27.375Z,13.10
2017-09-02T18:28:55.582Z,13.00
2017-09-02T18:31:23.114Z,12.90
2017-09-02T18:33:50.732Z,13.00
2017-09-02T18:36:18.327Z,12.90
2017-09-02T18:38:45.911Z,12.90
2017-09-02T18:41:13.507Z,12.90
2017-09-02T18:43:41.110Z,12.80
2017-09-02T18:46:08.806Z,12.70
2017-09-02T18:48:36.365Z,12.60
2017-09-02T18:51:04.062Z,12.50
2017-09-02T18:53:31.701Z,12.40
2017-09-02T18:55:59.365Z,12.30
2017-09-02T18:58:26.975Z,12.30
2017-09-02T19:00:54.588Z,12.30
2017-09-02T19:03:22.171Z,12.30
2017-09-02T19:05:50.650Z,12.30
2017-09-02T19:08:18.247Z,12.30
2017-09-02T19:10:45.847Z,12.30
2017-09-02T19:13:13.446Z,12.30
2017-09-02T19:15:41.064Z,12.50
2017-09-02T19:18:08.637Z,12.70
2017-09-02T19:20:36.226Z,12.70
2017-09-02T19:23:03.836Z,12.70
2017-09-02T19:25:31.567Z,12.50
2017-09-02T19:27:59.173Z,12.60
2017-09-02T19:30:26.763Z,12.70
2017-09-02T19:32:54.375Z,12.80
2017-09-02T19:35:21.968Z,12.70
2017-09-02T19:37:49.554Z,12.60
2017-09-02T19:40:17.163Z,12.40
2017-09-02T19:42:44.768Z,12.30
2017-09-02T19:45:12.534Z,12.30
2017-09-02T19:47:40.166Z,12.30
2017-09-02T19:50:07.758Z,12.40
2017-09-02T19:52:36.384Z,12.40
2017-09-02T19:55:04.003Z,12.40
2017-09-02T19:57:31.716Z,12.20
2017-09-02T19:59:59.485Z,12.20
2017-09-02T20:02:27.095Z,12.20
2017-09-02T20:04:54.758Z,12.20
2017-09-02T20:07:22.379Z,12.20
2017-09-02T20:09:49.992Z,12.10
2017-09-02T20:12:17.675Z,12.00
2017-09-02T20:14:45.265Z,11.90
2017-09-02T20:17:12.979Z,11.80
2017-09-02T20:19:40.576Z,11.70
2017-09-02T20:22:08.158Z,11.70
2017-09-02T20:24:35.783Z,11.80
2017-09-02T20:27:03.351Z,11.70
2017-09-02T20:29:30.952Z,11.80
2017-09-02T20:31:58.548Z,11.60
2017-09-02T20:34:26.180Z,11.50
2017-09-02T20:36:53.778Z,11.40
2017-09-02T20:39:21.460Z,11.40
2017-09-02T20:41:49.058Z,11.30
2017-09-02T20:44:16.634Z,11.40
2017-09-02T20:46:44.235Z,11.50
2017-09-02T20:49:11.983Z,11.40
2017-09-02T20:51:39.702Z,11.30
2017-09-02T20:54:07.290Z,11.20
2017-09-02T20:56:34.936Z,11.10
2017-09-02T20:59:02.544Z,11.00
2017-09-02T21:01:30.166Z,11.30
2017-09-02T21:03:57.750Z,11.30
2017-09-02T21:06:25.481Z,11.20
2017-09-02T21:08:53.078Z,11.10
2017-09-02T21:11:20.631Z,11.10
2017-09-02T21:13:48.192Z,11.20
2017-09-02T21:16:15.784Z,11.10
2017-09-02T21:18:43.375Z,11.10
2017-09-02T21:21:11.208Z,11.10
2017-09-02T21:23:38.810Z,11.20
2017-09-02T21:26:06.431Z,11.10
2017-09-02T21:28:34.052Z,11.00
2017-09-02T21:31:01.634Z,11.00
2017-09-02T21:33:29.225Z,11.10
2017-09-02T21:35:56.837Z,11.20
2017-09-02T21:38:24.419Z,11.10
2017-09-02T21:40:52.003Z,10.90
2017-09-02T21:43:19.592Z,10.80
2017-09-02T21:45:47.177Z,10.80
2017-09-02T21:48:14.757Z,10.60
2017-09-02T21:50:42.355Z,10.60
2017-09-02T21:53:09.988Z,10.60
2017-09-02T21:55:37.590Z,10.50
2017-09-02T21:58:05.222Z,10.40
2017-09-02T22:00:32.810Z,10.40
2017-09-02T22:03:00.418Z,10.40
2017-09-02T22:05:28.032Z,10.40
2017-09-02T22:07:55.623Z,10.40
2017-09-02T22:10:23.397Z,10.40
2017-09-02T22:12:50.971Z,10.40
2017-09-02T22:15:18.562Z,10.40
2017-09-02T22:17:46.185Z,10.20
2017-09-02T22:20:13.775Z,10.20
2017-09-02T22:22:41.467Z,10.20
2017-09-02T22:25:09.079Z,10.20
2017-09-02T22:27:36.653Z,10.30
2017-09-02T22:30:04.219Z,10.30
2017-09-02T22:32:31.823Z,10.20
2017-09-02T22:34:59.425Z,10.50
2017-09-02T22:37:27.052Z,10.50
2017-09-02T22:39:54.826Z,10.50
2017-09-02T22:42:22.608Z,10.40
2017-09-02T22:44:50.195Z,10.40
2017-09-02T22:47:17.993Z,10.20
2017-09-02T22:49:45.656Z,10.30
2017-09-02T22:52:13.294Z,10.30
2017-09-02T22:54:40.860Z,10.20
2017-09-02T22:57:08.477Z,10.30
2017-09-02T22:59:36.043Z,10.20
2017-09-02T23:02:03.642Z,10.00
2017-09-02T23:04:31.276Z,9.90
2017-09-02T23:06:58.874Z,10.00
2017-09-02T23:09:26.470Z,10.10
2017-09-02T23:11:54.092Z,10.20
2017-09-02T23:14:21.657Z,10.20
2017-09-02T23:16:49.304Z,10.10
2017-09-02T23:19:16.870Z,9.90
2017-09-02T23:21:44.455Z,9.90
2017-09-02T23:24:12.029Z,10.00
2017-09-02T23:26:39.598Z,10.00
2017-09-02T23:29:07.190Z,9.90
2017-09-02T23:31:34.778Z,9.80
2017-09-02T23:34:02.371Z,9.80
2017-09-02T23:36:29.950Z,10.00
2017-09-02T23:38:57.561Z,10.10
2017-09-02T23:41:25.293Z,10.00
2017-09-02T23:43:52.852Z,9.90
2017-09-02T23:46:20.422Z,9.80
2017-09-02T23:48:47.998Z,9.70
2017-09-02T23:51:15.671Z,9.50
2017-09-02T23:53:43.255Z,9.50
2017-09-02T23:56:10.830Z,9.50
2017-09-02T23:58:38.419Z,9.40
